• Join FlightAware (Why Join?)
  • Login
  • US Flag 
07:26AM EST


 

Airport Tracker/Info


-or-


 

Live Flight TrackerFlight Track Log ✈ SKW4685 ✈ 27-Apr-2014 ✈ KRST - KMSP

Flight Track Log - Related Links

Times and Time Zones

All times are in EDT time to prevent confusion due to time zone crossing. See the SKW4685 flight status page for this flight to view local times or setup timezone preferences in your user account.

Time Position Orientation Groundspeed Altitude Reporting Facility
EDT Latitude Longitude Course Direction KTS MPH feet Rate Location/Type
08:12AM 43.8822 -92.4686 332° Northwest 138 159 3,500  Level Minneapolis Center
08:13AM 43.8619 -92.5422 249° West 231 266 6,000 2,529 Climbing Minneapolis Center
08:14AM 44.2390 -92.7421 332° Northwest  Level Estimated
08:14AM 43.8725 -92.6489 278° West 281 323 8,600  Level Minneapolis Center
08:15AM 44.3491 -92.8234 332° Northwest  Level Estimated
08:15AM 43.8897 -92.7592 282° West 291 335 10,000  Level Minneapolis Center
08:16AM 44.4592 -92.9050 332° Northwest  Level Estimated
08:16AM 43.9108 -92.8928 282° West 327 376 10,000  Level Minneapolis Center
08:17AM 44.5271 -92.9556 332° Northwest  Level Estimated
08:17AM 43.9539 -92.9922 301° West 316 364 10,000  Level Minneapolis Center
08:18AM 44.0119 -93.0858 311° West 323 372 10,000  Level Minneapolis Center
08:19AM 44.0722 -93.1825 311° West 334 384 10,000  Level Minneapolis Center
08:20AM 44.1339 -93.2756 313° West 323 372 10,000  Level Minneapolis Center
08:21AM 44.2208 -93.2914 353° North 325 374 10,000  Level Minneapolis Center
08:22AM 44.3156 -93.2658 11° North 343 395 10,000  Level Minneapolis Center
08:23AM 44.4108 -93.2406 11° North 348 400 10,000  Level Minneapolis Center
08:24AM 44.5003 -93.2164 11° North 332 382 10,000  Level Minneapolis Center
08:25AM 44.5911 -93.1917 11° North 332 382 10,000 -545 Level Minneapolis Center
08:26AM 44.6781 -93.2122 350° North 327 376 8,900 -984 Descending Minneapolis Center
08:27AM 44.7583 -93.2619 336° Northwest 301 346 8,000 -541 Descending Minneapolis Center
08:28AM 44.8331 -93.3217 330° Northwest 312 359 7,800 -744 Descending Minneapolis Center
08:29AM 44.8828 -93.4164 307° West 308 354 6,500 -1,328 Descending Minneapolis Center
08:30AM 44.9303 -93.5061 307° West 291 335 5,100 -732 Descending Minneapolis Center
08:31AM 44.9819 -93.5658 321° Northwest 271 312 5,000 -50 Descending Minneapolis Center
08:32AM 44.9961 -93.4992 73° East 196 226 5,000 -246 Level Minneapolis Center
08:33AM 44.9714 -93.4283 116° Southeast 198 228 4,500 -807 Descending Minneapolis Center
08:34AM 44.9483 -93.3733 121° Southeast 168 193 3,400 -958 Descending Minneapolis Center
08:35AM 44.9314 -93.3367 123° Southeast 117 135 2,600 -629 Descending Minneapolis Center
08:36AM 44.9167 -93.3000 120° Southeast 111 128 2,100 -581 Descending Minneapolis Center
08:37AM 44.8994 -93.2600 121° Southeast 114 131 1,400 -689 Descending Minneapolis Center